Flugplatz Blomberg-Borkhausen

Für EDVF sind keine METAR/TAF Berichte vorhanden.
Es werden die Flugwettermeldungen vom Flugplatz Buckeburg Airport in 40 km Entfernung angezeigt.

Bericht für ETHB

vom 15.07. um 17:20 UTC

Wind 6 kt aus 330°

Sichtweite 10 km oder mehr

gering bewölkt in 3400 ft

aufgebrochene Bewölkung in 8500 ft

Temperatur 19.0°C

Taupunkt 12.0°C

Luftfeuchtigkeit 64%

Luftdruck 1013 hPa

ETHB 151720Z 33006KT 9999 FEW034 BKN085 19/12 Q1013 BLACKBLU

Prognose für ETHB

vom 15.07. um 13:08 UTC

Zwischen 14:00 UTC und 23:00 UTC

Wind 6 kt aus 300°

Sichtweite 10 km oder mehr

keine signifikanten Wettererscheinungen

gering bewölkt in 2000 ft

aufgelockert bewölkt in 5000 ft


Zwischen 14:00 UTC und 18:00 UTC mit einer Wahrscheinlichkeit von 30%

Wind 10 kt aus 320°

Sichtweite 5000 m

schwacher Regenschauer

aufgelockert bewölkt in 1500 ft

aufgebrochene Bewölkung in 3000 ft

TAF ETHB 151308Z 1514/1523 30006KT 9999 NSW FEW020 SCT050 PROB30 1514/1518 32010KT 5000 -SHRA SCT015 BKN030
Impressum